Saturday, January 19, 2019, 8:20 PM EST
Back to Local

KPBG, Plattsburgh International Airport

Location: Plattsburgh, NY, United States Lat: 44.65
Local Time: 8:20 PM EST ( 1:20 GMT) Lon: -73.467
Time Zone: US/Eastern Elev: 239 ft

Show me the last for .
Show Decoded

2019-01-19 19:53 METAR KPBG 200053Z AUTO 01005KT 5SM -SN OVC050 M22/M24 A3030 RMK AO2 SLP268
                 P0000 T12171244 =
2019-01-19 18:53 METAR KPBG 192353Z AUTO 33006KT 3SM -SN OVC037 M22/M25 A3033 RMK AO2 SLP277
                 P0000 60001 T12221250 11194 21222 58019 =
2019-01-19 18:43 METAR KPBG 192343Z AUTO 34007KT 2SM -SN OVC033 M22/M25 A3033 RMK AO2 P0000
                 T12171250 =
2019-01-19 18:12 METAR KPBG 192312Z AUTO 35006KT 2SM -SN OVC023 M22/M24 A3034 RMK AO2 P0000
                 T12171244 =
2019-01-19 17:53 METAR KPBG 192253Z AUTO 36009KT 1 1/2SM -SN OVC020 M22/M24 A3035 RMK AO2 SLP284
                 P0000 T12171244 =
2019-01-19 16:53 METAR KPBG 192153Z AUTO 36009KT 1 1/2SM -SN OVC018 M21/M24 A3038 RMK AO2 SLP294
                 P0001 T12111239 =
2019-01-19 16:51 METAR KPBG 192151Z AUTO 36009KT 1 1/2SM -SN OVC018 M21/M24 A3038 RMK AO2 P0001 =
2019-01-19 16:32 METAR KPBG 192132Z AUTO 36008KT 3/4SM -SN VV016 M21/M24 A3039 RMK AO2 P0001
                 T12111239 =
2019-01-19 16:19 METAR KPBG 192119Z AUTO 36010KT 1/2SM SN VV015 M21/M24 A3038 RMK AO2 P0001
                 T12111239 =
2019-01-19 15:53 METAR KPBG 192053Z AUTO 02008KT 1/2SM SN VV014 M21/M24 A3039 RMK AO2 SLP297
                 P0000 60000 T12061239 50003 =
2019-01-19 15:49 METAR KPBG 192049Z AUTO 01008KT 1/2SM SN VV014 M21/M24 A3039 RMK AO2 P0000 =
2019-01-19 15:10 METAR KPBG 192010Z AUTO 01006KT 3/4SM -SN VV017 M21/M24 A3040 RMK AO2 P0000
                 T12061244 =
2019-01-19 15:01 METAR KPBG 192001Z AUTO 01008KT 1SM -SN VV020 M21/M25 A3039 RMK AO2 P0000
                 T12061250 =
2019-01-19 14:53 METAR KPBG 191953Z AUTO 02009KT 2SM -SN OVC025 M21/M26 A3039 RMK AO2 SNB45
                 SLP299 P0000 T12061256 =
2019-01-19 14:51 METAR KPBG 191951Z AUTO 02008KT 3SM -SN OVC027 M21/M26 A3039 RMK AO2 SNB45 P0000
                 =
2019-01-19 13:53 METAR KPBG 191853Z AUTO 03008KT 10SM OVC070 M21/M27 A3038 RMK AO2 SLP295
                 T12061267 =
2019-01-19 12:53 METAR KPBG 191753Z AUTO 02010KT 10SM OVC090 M19/M25 A3039 RMK AO2 SLP299
                 T11941250 11172 21194 58030 =
2019-01-19 11:53 METAR KPBG 191653Z AUTO 01009KT 10SM BKN100 M19/M25 A3044 RMK AO2 SLP312
                 T11891250 =
2019-01-19 10:53 METAR KPBG 191553Z AUTO 35012KT 10SM BKN100 M19/M25 A3048 RMK AO2 SLP326
                 T11891250 =
2019-01-19 09:53 METAR KPBG 191453Z AUTO 02010KT 10SM CLR M19/M26 A3048 RMK AO2 SLP329 T11891256
                 51027 =
2019-01-19 08:53 METAR KPBG 191353Z AUTO 02009KT 10SM FEW031 SCT120 M18/M24 A3046 RMK AO2 SLP321
                 T11831244 =
2019-01-19 07:53 METAR KPBG 191253Z AUTO 01012KT 10SM OVC031 M18/M24 A3044 RMK AO2 SLP314
                 T11831239 =
2019-01-19 06:53 METAR KPBG 191153Z AUTO 01011KT 10SM BKN034 M17/M22 A3040 RMK AO2 SLP301
                 T11721222 11094 21172 51027 =
2019-01-19 05:53 METAR KPBG 191053Z AUTO 02013KT 10SM BKN049 M16/M22 A3038 RMK AO2 SLP291
                 T11611222 =
2019-01-19 04:53 METAR KPBG 190953Z AUTO 01017KT 10SM BKN050 M14/M22 A3036 RMK AO2 SLP284
                 T11441217 =
2019-01-19 03:53 METAR KPBG 190853Z AUTO 02015KT 10SM OVC050 M13/M18 A3032 RMK AO2 SLP273
                 T11281183 51027 =
2019-01-19 02:53 METAR KPBG 190753Z AUTO 36018KT 10SM OVC050 M11/M17 A3031 RMK AO2 SLP267
                 T11111172 =
2019-01-19 01:53 METAR KPBG 190653Z AUTO 36014KT 10SM OVC055 M10/M14 A3027 RMK AO2 SLP254
                 T11001144 =
2019-01-19 00:53 METAR KPBG 190553Z AUTO 36009KT 10SM OVC048 M09/M14 A3024 RMK AO2
                 UPB0458E02SNE0458 SLP246 P0000 60000 T10941139 11022 21094 51026 =
2019-01-19 00:05 METAR KPBG 190505Z AUTO 35016KT 10SM FEW016 SCT023 OVC031 M09/M13 A3024 RMK AO2
                 UPB0458E02SNE0458 P0000 T10891128 =
2019-01-18 23:53 METAR KPBG 190453Z AUTO 35016G25KT 7SM -SN FEW016 BKN025 OVC030 M08/M12 A3023
                 RMK AO2 SNB35 SLP241 P0000 T10831122 410111111 =
2019-01-18 23:32 METAR KPBG 190432Z AUTO 01007KT 10SM BKN025 OVC030 M06/M09 A3021 RMK AO2
                 T10611089 =
2019-01-18 22:53 METAR KPBG 190353Z AUTO 35007KT 10SM SCT044 OVC060 M06/M11 A3019 RMK AO2 SLP225
                 T10611106 =
2019-01-18 21:53 METAR KPBG 190253Z AUTO 33004KT 10SM OVC039 M05/M11 A3017 RMK AO2 SLP219
                 T10501106 51030 =
2019-01-18 20:53 METAR KPBG 190153Z AUTO 33011KT 10SM OVC035 M04/M10 A3015 RMK AO2 SLP212
                 T10441100 =

Support USWX by starting your Amazon purchase here.